createdAt,value
2022-08-17T00:00:34.286Z,99.90
2022-08-17T00:03:17.895Z,99.90
2022-08-17T00:05:52.611Z,99.90
2022-08-17T00:08:23.328Z,99.90
2022-08-17T00:10:51.789Z,99.90
2022-08-17T00:13:25.816Z,99.90
2022-08-17T00:15:57.887Z,99.90
2022-08-17T00:19:01.979Z,99.90
2022-08-17T00:21:13.163Z,99.90
2022-08-17T00:23:47.698Z,99.90
2022-08-17T00:26:16.636Z,99.90
2022-08-17T00:29:04.278Z,99.90
2022-08-17T00:31:31.933Z,99.90
2022-08-17T00:33:59.391Z,99.90
2022-08-17T00:36:26.365Z,99.90
2022-08-17T00:38:56.326Z,99.90
2022-08-17T00:41:26.665Z,99.90
2022-08-17T00:44:02.328Z,99.90
2022-08-17T00:46:36.461Z,99.90
2022-08-17T00:49:04.917Z,99.90
2022-08-17T00:51:52.753Z,99.90
2022-08-17T00:54:33.666Z,99.90
2022-08-17T00:57:18.530Z,99.90
2022-08-17T01:00:01.792Z,99.90
2022-08-17T01:02:35.029Z,99.90
2022-08-17T01:05:12.616Z,99.90
2022-08-17T01:07:40.095Z,99.90
2022-08-17T01:10:58.521Z,99.90
2022-08-17T01:12:56.868Z,99.90
2022-08-17T01:15:23.834Z,99.90
2022-08-17T01:17:50.685Z,99.90
2022-08-17T01:20:17.594Z,99.90
2022-08-17T01:22:53.667Z,99.90
2022-08-17T01:25:21.392Z,99.90
2022-08-17T01:27:49.340Z,99.90
2022-08-17T01:30:58.722Z,99.90
2022-08-17T01:33:04.396Z,99.90
2022-08-17T01:35:31.913Z,99.90
2022-08-17T01:37:58.862Z,99.90
2022-08-17T01:40:39.013Z,99.90
2022-08-17T01:43:12.221Z,99.90
2022-08-17T01:45:44.215Z,99.90
2022-08-17T01:48:12.438Z,99.90
2022-08-17T01:50:42.027Z,99.90
2022-08-17T01:53:25.657Z,99.90
2022-08-17T01:55:55.512Z,99.90
2022-08-17T01:58:22.911Z,99.90
2022-08-17T02:01:00.519Z,99.90
2022-08-17T02:03:29.651Z,99.90
2022-08-17T02:05:56.973Z,99.90
2022-08-17T02:08:39.268Z,99.90
2022-08-17T02:11:16.990Z,99.90
2022-08-17T02:13:45.807Z,99.90
2022-08-17T02:16:13.084Z,99.90
2022-08-17T02:18:40.132Z,99.90
2022-08-17T02:21:08.154Z,99.90
2022-08-17T02:23:39.081Z,99.90
2022-08-17T02:26:06.659Z,99.90
2022-08-17T02:28:33.986Z,99.90
2022-08-17T02:31:10.296Z,99.90
2022-08-17T02:33:42.888Z,99.90
2022-08-17T02:36:13.038Z,99.90
2022-08-17T02:38:40.906Z,99.90
2022-08-17T02:41:08.529Z,99.90
2022-08-17T02:43:35.539Z,99.90
2022-08-17T02:46:02.497Z,99.90
2022-08-17T02:48:31.683Z,99.90
2022-08-17T02:51:00.031Z,99.90
2022-08-17T02:53:27.740Z,99.90
2022-08-17T02:56:02.698Z,99.90
2022-08-17T02:58:35.094Z,99.90
2022-08-17T03:01:06.033Z,99.90
2022-08-17T03:03:32.982Z,99.90
2022-08-17T03:06:00.152Z,99.90
2022-08-17T03:08:27.305Z,99.90
2022-08-17T03:10:54.386Z,99.90
2022-08-17T03:13:21.675Z,99.90
2022-08-17T03:15:49.713Z,99.90
2022-08-17T03:18:24.841Z,99.90
2022-08-17T03:20:58.307Z,99.90
2022-08-17T03:23:26.111Z,99.90
2022-08-17T03:25:55.188Z,99.90
2022-08-17T03:28:23.539Z,99.90
2022-08-17T03:30:51.680Z,99.90
2022-08-17T03:33:19.439Z,99.90
2022-08-17T03:35:46.987Z,99.90
2022-08-17T03:38:15.371Z,99.90
2022-08-17T03:40:56.236Z,99.90
2022-08-17T03:43:30.943Z,99.90
2022-08-17T03:46:27.038Z,99.90
2022-08-17T03:49:19.767Z,99.90
2022-08-17T03:52:05.354Z,99.90
2022-08-17T03:54:50.676Z,99.90
2022-08-17T03:57:18.551Z,99.90
2022-08-17T03:59:45.713Z,99.90
2022-08-17T04:02:24.307Z,99.90
2022-08-17T04:04:52.337Z,99.90
2022-08-17T04:07:21.684Z,99.90
2022-08-17T04:09:48.942Z,99.90
2022-08-17T04:12:18.505Z,99.90
2022-08-17T04:14:53.270Z,99.90
2022-08-17T04:17:27.679Z,99.90
2022-08-17T04:19:55.395Z,99.90
2022-08-17T04:22:31.794Z,99.90
2022-08-17T04:25:01.734Z,99.90
2022-08-17T04:27:28.595Z,99.90
2022-08-17T04:29:56.220Z,99.90
2022-08-17T04:32:58.576Z,99.90
2022-08-17T04:35:10.376Z,99.90
2022-08-17T04:37:37.215Z,99.90
2022-08-17T04:40:27.159Z,99.90
2022-08-17T04:43:02.788Z,99.90
2022-08-17T04:45:32.409Z,99.90
2022-08-17T04:48:00.840Z,99.90
2022-08-17T04:50:27.900Z,99.90
2022-08-17T04:52:55.000Z,99.90
2022-08-17T04:55:22.286Z,99.90
2022-08-17T04:57:49.102Z,99.90
2022-08-17T05:00:16.143Z,99.90
2022-08-17T05:02:50.673Z,99.90
2022-08-17T05:05:23.708Z,99.90
2022-08-17T05:07:56.217Z,99.90
2022-08-17T05:10:29.467Z,99.90
2022-08-17T05:13:07.540Z,99.90
2022-08-17T05:15:36.257Z,99.90
2022-08-17T05:18:04.450Z,99.90
2022-08-17T05:20:31.918Z,99.90
2022-08-17T05:23:01.687Z,99.90
2022-08-17T05:25:33.296Z,99.90
2022-08-17T05:28:05.567Z,99.90
2022-08-17T05:30:33.285Z,99.90
2022-08-17T05:33:06.948Z,99.90
2022-08-17T05:35:37.448Z,99.90
2022-08-17T05:38:05.860Z,99.90
2022-08-17T05:40:33.245Z,99.90
2022-08-17T05:43:14.179Z,99.90
2022-08-17T05:45:54.625Z,99.90
2022-08-17T05:48:35.399Z,99.90
2022-08-17T05:51:39.720Z,99.90
2022-08-17T05:54:06.684Z,99.90
2022-08-17T05:56:36.524Z,99.90
2022-08-17T05:59:21.426Z,99.90
2022-08-17T06:02:25.776Z,99.90
2022-08-17T06:04:52.583Z,99.90
2022-08-17T06:07:34.411Z,99.90
2022-08-17T06:10:16.431Z,99.90
2022-08-17T06:13:12.791Z,99.90
2022-08-17T06:15:42.411Z,99.90
2022-08-17T06:18:12.152Z,99.90
2022-08-17T06:21:12.503Z,99.90
2022-08-17T06:23:50.747Z,99.90
2022-08-17T06:26:27.503Z,99.90
2022-08-17T06:29:29.918Z,99.90
2022-08-17T06:31:57.738Z,99.90
2022-08-17T06:34:24.680Z,99.90
2022-08-17T06:37:01.773Z,99.90
2022-08-17T06:39:47.886Z,99.90
2022-08-17T06:43:04.045Z,99.90
2022-08-17T06:45:56.152Z,99.90
2022-08-17T06:48:36.101Z,99.90
2022-08-17T06:51:25.967Z,99.90
2022-08-17T06:54:05.451Z,99.90
2022-08-17T06:56:53.248Z,99.90
2022-08-17T06:59:53.222Z,99.90
2022-08-17T07:02:29.103Z,99.90
2022-08-17T07:05:09.836Z,99.90
2022-08-17T07:07:58.057Z,99.90
2022-08-17T07:10:27.604Z,99.90
2022-08-17T07:12:58.217Z,99.90
2022-08-17T07:15:42.383Z,99.90
2022-08-17T07:18:10.374Z,99.90
2022-08-17T07:20:42.977Z,99.90
2022-08-17T07:23:19.124Z,99.90
2022-08-17T07:25:45.995Z,99.90
2022-08-17T07:28:13.062Z,99.90
2022-08-17T07:30:49.368Z,99.90
2022-08-17T07:33:20.331Z,99.90
2022-08-17T07:35:48.462Z,99.90
2022-08-17T07:38:33.662Z,99.90
2022-08-17T07:41:07.314Z,98.70
2022-08-17T07:43:41.473Z,90.80
2022-08-17T07:46:33.637Z,78.00
2022-08-17T07:49:03.526Z,68.50
2022-08-17T07:51:42.382Z,61.40
2022-08-17T07:54:15.486Z,57.20
2022-08-17T07:57:03.439Z,53.20
2022-08-17T07:59:36.477Z,51.00
2022-08-17T08:02:35.640Z,48.90
2022-08-17T08:05:32.895Z,47.00
2022-08-17T08:08:17.878Z,45.70
2022-08-17T08:10:56.708Z,44.70
2022-08-17T08:13:30.248Z,42.60
2022-08-17T08:16:20.733Z,43.40
2022-08-17T08:18:56.845Z,41.30
2022-08-17T08:21:59.110Z,40.50
2022-08-17T08:24:59.129Z,39.20
2022-08-17T08:27:33.577Z,39.20
2022-08-17T08:30:08.094Z,40.30
2022-08-17T08:33:07.628Z,39.80
2022-08-17T08:35:41.799Z,39.80
2022-08-17T08:38:37.153Z,39.00
2022-08-17T08:41:33.356Z,38.00
2022-08-17T08:45:00.139Z,36.90
2022-08-17T08:48:05.163Z,35.60
2022-08-17T08:50:44.431Z,36.20
2022-08-17T08:53:26.257Z,36.40
2022-08-17T08:56:00.648Z,35.30
2022-08-17T08:58:54.856Z,34.50
2022-08-17T09:01:35.618Z,34.20
2022-08-17T09:04:44.933Z,34.20
2022-08-17T09:08:00.007Z,34.50
2022-08-17T09:10:49.952Z,35.10
2022-08-17T09:13:30.791Z,34.90
2022-08-17T09:16:09.211Z,34.40
2022-08-17T09:18:59.955Z,33.60
2022-08-17T09:21:55.622Z,32.00
2022-08-17T09:24:33.280Z,32.40
2022-08-17T09:27:18.496Z,32.40
2022-08-17T09:29:51.695Z,31.60
2022-08-17T09:32:28.639Z,32.10
2022-08-17T09:35:05.093Z,31.90
2022-08-17T09:37:57.108Z,31.00
2022-08-17T09:40:26.726Z,30.20
2022-08-17T09:43:04.732Z,30.20
2022-08-17T09:45:42.821Z,29.70
2022-08-17T09:49:24.610Z,29.90
2022-08-17T09:52:01.110Z,29.80
2022-08-17T09:54:39.241Z,30.00
2022-08-17T09:57:30.400Z,30.50
2022-08-17T10:00:01.323Z,29.50
2022-08-17T10:02:37.048Z,29.40
2022-08-17T10:05:13.806Z,31.30
2022-08-17T10:07:55.985Z,30.00
2022-08-17T10:10:29.794Z,29.80
2022-08-17T10:13:31.492Z,30.40
2022-08-17T10:16:01.076Z,31.10
2022-08-17T10:18:53.068Z,32.00
2022-08-17T10:21:39.882Z,31.20
2022-08-17T10:24:38.894Z,30.50
2022-08-17T10:27:16.171Z,31.40
2022-08-17T10:29:53.629Z,30.80
2022-08-17T10:32:49.843Z,30.90
2022-08-17T10:35:35.472Z,29.30
2022-08-17T10:38:40.949Z,29.10
2022-08-17T10:41:13.962Z,29.10
2022-08-17T10:43:58.895Z,29.00
2022-08-17T10:47:16.894Z,29.30
2022-08-17T10:49:54.010Z,30.70
2022-08-17T10:52:26.328Z,29.00
2022-08-17T10:54:58.535Z,30.60
2022-08-17T10:57:34.751Z,30.10
2022-08-17T11:00:02.651Z,31.30
2022-08-17T11:02:49.474Z,30.80
2022-08-17T11:05:52.334Z,32.50
2022-08-17T11:08:49.483Z,32.10
2022-08-17T11:11:40.025Z,32.50
2022-08-17T11:14:25.516Z,32.30
2022-08-17T11:16:58.262Z,32.70
2022-08-17T11:19:41.612Z,32.40
2022-08-17T11:22:33.509Z,33.20
2022-08-17T11:25:36.223Z,32.30
2022-08-17T11:28:26.269Z,31.60
2022-08-17T11:30:57.223Z,32.00
2022-08-17T11:33:34.007Z,32.40
2022-08-17T11:36:15.905Z,33.50
2022-08-17T11:38:57.950Z,34.30
2022-08-17T11:41:35.271Z,34.40
2022-08-17T11:44:20.580Z,35.10
2022-08-17T11:47:27.865Z,35.80
2022-08-17T11:50:35.471Z,36.30
2022-08-17T11:53:03.225Z,35.90
2022-08-17T11:55:40.511Z,37.90
2022-08-17T11:58:45.337Z,37.40
2022-08-17T12:01:33.674Z,36.90
2022-08-17T12:04:30.212Z,38.00
2022-08-17T12:07:23.173Z,37.90
2022-08-17T12:09:51.854Z,38.20
2022-08-17T12:12:33.294Z,37.70
2022-08-17T12:15:16.948Z,37.80
2022-08-17T12:17:56.746Z,38.70
2022-08-17T12:20:39.613Z,38.10
2022-08-17T12:23:13.991Z,38.10
2022-08-17T12:25:47.653Z,36.50
2022-08-17T12:28:28.528Z,36.10
2022-08-17T12:31:01.958Z,36.20
2022-08-17T12:33:29.165Z,36.30
2022-08-17T12:36:06.324Z,37.30
2022-08-17T12:38:36.154Z,35.40
2022-08-17T12:41:26.065Z,34.90
2022-08-17T12:44:02.282Z,34.80
2022-08-17T12:46:44.799Z,35.30
2022-08-17T12:49:16.103Z,37.00
2022-08-17T12:51:45.792Z,36.60
2022-08-17T12:54:26.390Z,36.80
2022-08-17T12:56:53.760Z,38.20
2022-08-17T12:59:29.943Z,38.60
2022-08-17T13:01:57.800Z,38.30
2022-08-17T13:04:26.496Z,38.60
2022-08-17T13:06:59.734Z,38.80
2022-08-17T13:09:36.082Z,37.20
2022-08-17T13:12:07.880Z,38.00
2022-08-17T13:14:35.416Z,38.90
2022-08-17T13:17:09.718Z,40.40
2022-08-17T13:19:49.479Z,40.50
2022-08-17T13:22:18.406Z,40.70
2022-08-17T13:24:56.584Z,40.30
2022-08-17T13:27:26.486Z,40.50
2022-08-17T13:29:59.652Z,40.80
2022-08-17T13:32:47.263Z,43.30
2022-08-17T13:35:40.993Z,42.60
2022-08-17T13:38:37.524Z,42.80
2022-08-17T13:41:07.532Z,42.60
2022-08-17T13:43:45.059Z,42.50
2022-08-17T13:46:25.233Z,43.30
2022-08-17T13:49:09.937Z,44.40
2022-08-17T13:51:43.903Z,45.50
2022-08-17T13:54:22.626Z,44.50
2022-08-17T13:57:00.303Z,44.60
2022-08-17T13:59:53.622Z,44.10
2022-08-17T14:02:20.824Z,43.40
2022-08-17T14:04:49.234Z,43.10
2022-08-17T14:07:16.755Z,43.00
2022-08-17T14:10:14.881Z,43.10
2022-08-17T14:12:44.936Z,42.50
2022-08-17T14:15:15.056Z,44.80
2022-08-17T14:17:42.083Z,45.00
2022-08-17T14:20:12.151Z,44.60
2022-08-17T14:22:43.298Z,45.50
2022-08-17T14:25:13.217Z,45.70
2022-08-17T14:27:47.121Z,45.40
2022-08-17T14:30:28.973Z,46.10
2022-08-17T14:32:58.176Z,47.00
2022-08-17T14:35:27.524Z,47.10
2022-08-17T14:37:54.630Z,47.60
2022-08-17T14:40:24.959Z,48.00
2022-08-17T14:42:53.731Z,48.20
2022-08-17T14:45:27.028Z,48.30
2022-08-17T14:48:01.763Z,47.30
2022-08-17T14:50:28.588Z,47.60
2022-08-17T14:52:59.165Z,47.60
2022-08-17T14:55:28.411Z,47.60
2022-08-17T14:57:55.246Z,47.70
2022-08-17T15:00:22.673Z,47.90
2022-08-17T15:02:55.161Z,48.30
2022-08-17T15:05:24.994Z,48.20
2022-08-17T15:07:53.549Z,47.80
2022-08-17T15:10:20.697Z,47.80
2022-08-17T15:12:47.901Z,48.00
2022-08-17T15:15:17.158Z,48.20
2022-08-17T15:17:54.721Z,48.20
2022-08-17T15:20:28.143Z,48.60
2022-08-17T15:22:57.286Z,48.70
2022-08-17T15:25:27.518Z,48.70
2022-08-17T15:27:55.946Z,48.90
2022-08-17T15:30:23.683Z,49.00
2022-08-17T15:32:55.102Z,48.40
2022-08-17T15:35:27.929Z,48.20
2022-08-17T15:38:11.542Z,48.30
2022-08-17T15:40:42.560Z,48.10
2022-08-17T15:43:12.451Z,48.50
2022-08-17T15:45:40.032Z,48.70
2022-08-17T15:48:07.070Z,48.50
2022-08-17T15:50:34.092Z,48.50
2022-08-17T15:53:02.329Z,48.50
2022-08-17T15:55:31.229Z,48.70
2022-08-17T15:57:58.481Z,48.60
2022-08-17T16:00:35.462Z,48.60
2022-08-17T16:03:59.342Z,48.70
2022-08-17T16:06:07.851Z,49.50
2022-08-17T16:08:38.389Z,50.00
2022-08-17T16:11:05.608Z,49.80
2022-08-17T16:13:32.879Z,49.80
2022-08-17T16:15:59.810Z,50.00
2022-08-17T16:18:31.437Z,50.90
2022-08-17T16:21:20.130Z,50.90
2022-08-17T16:23:49.450Z,51.00
2022-08-17T16:26:16.524Z,51.30
2022-08-17T16:28:43.415Z,51.90
2022-08-17T16:31:10.910Z,51.60
2022-08-17T16:33:39.624Z,50.90
2022-08-17T16:36:10.313Z,50.40
2022-08-17T16:38:38.623Z,51.00
2022-08-17T16:41:06.497Z,52.20
2022-08-17T16:43:34.571Z,51.80
2022-08-17T16:46:02.053Z,50.90
2022-08-17T16:48:29.751Z,51.40
2022-08-17T16:51:03.223Z,51.90
2022-08-17T16:53:31.686Z,52.30
2022-08-17T16:55:58.693Z,53.60
2022-08-17T16:58:25.659Z,52.20
2022-08-17T17:00:52.829Z,51.80
2022-08-17T17:03:25.807Z,52.90
2022-08-17T17:06:16.628Z,52.30
2022-08-17T17:09:00.762Z,52.10
2022-08-17T17:11:40.486Z,52.00
2022-08-17T17:14:16.998Z,52.20
2022-08-17T17:16:49.409Z,53.60
2022-08-17T17:19:37.719Z,54.20
2022-08-17T17:22:16.492Z,54.50
2022-08-17T17:25:08.337Z,54.90
2022-08-17T17:27:50.475Z,55.00
2022-08-17T17:30:27.664Z,55.70
2022-08-17T17:33:17.514Z,56.20
2022-08-17T17:36:00.213Z,56.20
2022-08-17T17:38:34.294Z,56.90
2022-08-17T17:41:25.323Z,57.30
2022-08-17T17:44:01.917Z,57.50
2022-08-17T17:46:38.005Z,57.80
2022-08-17T17:49:06.149Z,58.30
2022-08-17T17:52:08.026Z,58.60
2022-08-17T17:54:47.966Z,58.90
2022-08-17T17:57:38.274Z,59.60
2022-08-17T18:00:13.008Z,60.00
2022-08-17T18:03:14.575Z,60.60
2022-08-17T18:06:06.366Z,61.40
2022-08-17T18:09:02.050Z,61.90
2022-08-17T18:11:46.148Z,61.90
2022-08-17T18:14:18.461Z,61.90
2022-08-17T18:16:46.599Z,63.20
2022-08-17T18:19:21.989Z,65.20
2022-08-17T18:21:54.831Z,66.30
2022-08-17T18:24:39.909Z,68.20
2022-08-17T18:27:32.277Z,68.50
2022-08-17T18:30:21.526Z,68.70
2022-08-17T18:32:48.758Z,69.20
2022-08-17T18:35:18.620Z,70.10
2022-08-17T18:37:49.000Z,70.70
2022-08-17T18:40:19.597Z,71.30
2022-08-17T18:43:06.070Z,71.70
2022-08-17T18:45:49.658Z,72.70
2022-08-17T18:48:27.763Z,73.90
2022-08-17T18:50:59.054Z,74.80
2022-08-17T18:53:36.508Z,75.60
2022-08-17T18:56:27.220Z,76.60
2022-08-17T18:59:04.915Z,77.90
2022-08-17T19:01:59.282Z,79.00
2022-08-17T19:04:37.509Z,80.20
2022-08-17T19:07:26.864Z,81.70
2022-08-17T19:10:25.519Z,84.20
2022-08-17T19:13:15.643Z,85.80
2022-08-17T19:16:22.886Z,87.30
2022-08-17T19:19:12.583Z,88.80
2022-08-17T19:21:54.405Z,90.60
2022-08-17T19:24:26.639Z,92.50
2022-08-17T19:27:11.418Z,94.50
2022-08-17T19:29:46.816Z,96.10
2022-08-17T19:32:27.686Z,97.80
2022-08-17T19:34:56.184Z,99.00
2022-08-17T19:37:42.047Z,99.90
2022-08-17T19:40:52.863Z,99.90
2022-08-17T19:43:31.202Z,99.90
2022-08-17T19:46:30.313Z,99.90
2022-08-17T19:49:11.637Z,99.90
2022-08-17T19:52:10.858Z,99.90
2022-08-17T19:54:47.347Z,99.90
2022-08-17T19:58:08.668Z,99.90
2022-08-17T20:00:47.008Z,99.90
2022-08-17T20:03:35.400Z,99.90
2022-08-17T20:06:12.892Z,99.90
2022-08-17T20:09:14.988Z,99.90
2022-08-17T20:11:57.629Z,99.90
2022-08-17T20:14:35.758Z,99.90
2022-08-17T20:17:06.043Z,99.90
2022-08-17T20:19:41.118Z,99.90
2022-08-17T20:22:49.682Z,99.90
2022-08-17T20:25:44.683Z,99.90
2022-08-17T20:28:24.861Z,99.90
2022-08-17T20:30:52.592Z,99.90
2022-08-17T20:33:25.854Z,99.90
2022-08-17T20:36:04.397Z,99.90
2022-08-17T20:38:48.724Z,99.90
2022-08-17T20:41:22.459Z,99.90
2022-08-17T20:43:59.011Z,99.90
2022-08-17T20:46:33.290Z,99.90
2022-08-17T20:49:09.193Z,99.90
2022-08-17T20:52:28.841Z,99.90
2022-08-17T20:54:59.884Z,99.90
2022-08-17T20:57:32.891Z,99.90
2022-08-17T21:00:17.552Z,99.90
2022-08-17T21:02:49.864Z,99.90
2022-08-17T21:05:53.423Z,99.90
2022-08-17T21:08:53.229Z,99.90
2022-08-17T21:12:02.239Z,99.90
2022-08-17T21:14:52.193Z,99.90
2022-08-17T21:17:29.910Z,99.90
2022-08-17T21:20:22.059Z,99.90
2022-08-17T21:22:53.384Z,99.90
2022-08-17T21:25:55.961Z,99.90
2022-08-17T21:29:00.442Z,99.90
2022-08-17T21:31:35.341Z,99.90
2022-08-17T21:34:21.149Z,99.90
2022-08-17T21:36:49.013Z,99.90
2022-08-17T21:39:23.289Z,99.90
2022-08-17T21:41:57.307Z,99.90
2022-08-17T21:44:32.343Z,99.90
2022-08-17T21:47:28.212Z,99.90
2022-08-17T21:49:56.492Z,99.90
2022-08-17T21:52:26.986Z,99.90
2022-08-17T21:54:58.445Z,99.90
2022-08-17T21:57:28.369Z,99.90
2022-08-17T22:00:01.721Z,99.90
2022-08-17T22:02:36.086Z,99.90
2022-08-17T22:05:13.318Z,99.90
2022-08-17T22:07:42.603Z,99.90
2022-08-17T22:10:27.816Z,99.90
2022-08-17T22:13:16.870Z,99.90
2022-08-17T22:15:51.304Z,99.90
2022-08-17T22:18:26.881Z,99.90
2022-08-17T22:20:57.023Z,99.90
2022-08-17T22:23:48.003Z,99.90
2022-08-17T22:26:17.020Z,99.90
2022-08-17T22:28:52.324Z,99.90
2022-08-17T22:31:22.894Z,99.90
2022-08-17T22:34:02.009Z,99.90
2022-08-17T22:36:37.212Z,99.90
2022-08-17T22:39:08.323Z,99.90
2022-08-17T22:41:51.938Z,99.90
2022-08-17T22:44:37.840Z,99.90
2022-08-17T22:47:24.673Z,99.90
2022-08-17T22:49:58.835Z,99.90
2022-08-17T22:52:57.848Z,99.90
2022-08-17T22:55:44.406Z,99.90
2022-08-17T22:58:33.296Z,99.90
2022-08-17T23:01:26.123Z,99.90
2022-08-17T23:04:05.990Z,99.90
2022-08-17T23:06:35.168Z,99.90
2022-08-17T23:09:04.281Z,99.90
2022-08-17T23:11:49.380Z,99.90
2022-08-17T23:14:21.141Z,99.90
2022-08-17T23:16:50.372Z,99.90
2022-08-17T23:19:21.450Z,99.90
2022-08-17T23:21:52.571Z,99.90
2022-08-17T23:24:30.790Z,99.90
2022-08-17T23:26:59.022Z,99.90
2022-08-17T23:29:29.417Z,99.90
2022-08-17T23:31:59.834Z,99.90
2022-08-17T23:34:28.080Z,99.90
2022-08-17T23:36:55.885Z,99.90
2022-08-17T23:39:27.470Z,99.90
2022-08-17T23:42:00.214Z,99.90
2022-08-17T23:44:28.400Z,99.90
2022-08-17T23:46:55.273Z,99.90
2022-08-17T23:49:23.481Z,99.90
2022-08-17T23:51:50.391Z,99.90
2022-08-17T23:54:23.238Z,99.90
2022-08-17T23:56:50.628Z,99.90
2022-08-17T23:59:20.147Z,99.90
